Главная страница
METAR-TAF:

METAR-TAF

Аэропорты :

Лос-Мочис, Мексика

широта: 25-41N, долгота: 109-05W, высота над уровнем моря: 4 м

Текущие метеонаблюдения

Эта сводка был подготовлена 5 часа и 48 минут назад, в 03:40 UTC
Штиль
Температура 22°C
Влажность 69%
Давление 1013 hPa
Видимость: 16.1 км
Отдельные облака на высоте 22000 фута

METAR: MMLM 240340Z 00000KT 10SM SCT220 22/16 A2992 RMK 8/001

Время: 03:28 (09:28 UTC)

Прогноз

Эта сводка был подготовлена 5 часа и 13 минут назад, в 04:15 UTC
Прогноз действительный с 24-го 06 UTC до 25-го 06 UTC
Ветер 5 Узел от западный-юго-западный
Видимость: 10 км
Отдельные облака на высоте 25000 фута
С 24-го 1800 UTC
Ветер 12 Узел от юго-западный
Видимость: 10 км
Отдельные облака на высоте 25000 фута
С 25-го 0200 UTC
Ветер 5 Узел от юго-западный
Видимость: 10 км
Отдельные облака на высоте 25000 фута

TAF: MMLM 240415Z 2406/2506 24005KT P6SM SCT250 FM241800 23012KT P6SM SCT250 FM250200 23005KT P6SM SCT250

Метеонаблюдения и прогнозы для более 4000 аэропортов (сводки METAR и TAF).

Имеющиеся станции представлены на карте желтыми и красными точками.

Чтобы увидеть название станции, наведите на нее мышь.

Затем щелкните, чтобы увидеть метеонаблюдения и метеопрогнозы.

Управление картой: чтобы увеличить масштаб, щелкните зеленые кнопки с черным крестиком; чтобы уменьшить масштаб, щелкните зеленую кнопку с тире; для просмотра соседних карт щелкайте зеленые стрелки.


METAR-TAF: